sensor_id;sensor_type;location;lat;lon;timestamp;P1;durP1;ratioP1;P2;durP2;ratioP2
8060;SDS011;4073;42.626;25.386;2023-02-13T00:02:25;32.80;;;22.30;;
8060;SDS011;4073;42.626;25.386;2023-02-13T00:04:50;27.60;;;19.30;;
8060;SDS011;4073;42.626;25.386;2023-02-13T00:07:16;30.03;;;19.43;;
8060;SDS011;4073;42.626;25.386;2023-02-13T00:09:41;27.60;;;20.77;;
8060;SDS011;4073;42.626;25.386;2023-02-13T00:12:07;28.47;;;19.63;;
8060;SDS011;4073;42.626;25.386;2023-02-13T00:14:34;34.75;;;24.00;;
8060;SDS011;4073;42.626;25.386;2023-02-13T00:17:00;35.33;;;24.03;;
8060;SDS011;4073;42.626;25.386;2023-02-13T00:19:26;41.77;;;26.27;;
8060;SDS011;4073;42.626;25.386;2023-02-13T00:21:51;34.43;;;23.67;;
8060;SDS011;4073;42.626;25.386;2023-02-13T00:24:17;30.50;;;22.77;;
8060;SDS011;4073;42.626;25.386;2023-02-13T00:26:42;35.80;;;23.40;;
8060;SDS011;4073;42.626;25.386;2023-02-13T00:29:08;30.13;;;21.07;;
8060;SDS011;4073;42.626;25.386;2023-02-13T00:31:33;26.53;;;20.10;;
8060;SDS011;4073;42.626;25.386;2023-02-13T00:33:59;33.47;;;23.10;;
8060;SDS011;4073;42.626;25.386;2023-02-13T00:36:24;38.37;;;23.63;;
8060;SDS011;4073;42.626;25.386;2023-02-13T00:38:50;43.57;;;28.93;;
8060;SDS011;4073;42.626;25.386;2023-02-13T00:41:16;96.53;;;52.53;;
8060;SDS011;4073;42.626;25.386;2023-02-13T00:43:42;38.10;;;25.37;;
8060;SDS011;4073;42.626;25.386;2023-02-13T00:46:08;58.17;;;39.40;;
8060;SDS011;4073;42.626;25.386;2023-02-13T00:48:36;37.92;;;25.90;;
8060;SDS011;4073;42.626;25.386;2023-02-13T00:51:01;32.37;;;21.20;;
8060;SDS011;4073;42.626;25.386;2023-02-13T00:53:28;35.00;;;22.30;;
8060;SDS011;4073;42.626;25.386;2023-02-13T00:55:54;32.17;;;22.07;;
8060;SDS011;4073;42.626;25.386;2023-02-13T00:58:19;28.20;;;21.20;;
8060;SDS011;4073;42.626;25.386;2023-02-13T01:00:45;25.90;;;19.23;;
8060;SDS011;4073;42.626;25.386;2023-02-13T01:03:15;31.77;;;21.83;;
8060;SDS011;4073;42.626;25.386;2023-02-13T01:05:41;27.97;;;20.70;;
8060;SDS011;4073;42.626;25.386;2023-02-13T01:08:07;31.03;;;19.97;;
8060;SDS011;4073;42.626;25.386;2023-02-13T01:10:33;30.25;;;21.58;;
8060;SDS011;4073;42.626;25.386;2023-02-13T01:12:59;31.07;;;23.00;;
8060;SDS011;4073;42.626;25.386;2023-02-13T01:15:24;28.73;;;21.63;;
8060;SDS011;4073;42.626;25.386;2023-02-13T01:17:53;34.00;;;24.40;;
8060;SDS011;4073;42.626;25.386;2023-02-13T01:20:21;35.03;;;22.80;;
8060;SDS011;4073;42.626;25.386;2023-02-13T01:22:47;32.37;;;22.63;;
8060;SDS011;4073;42.626;25.386;2023-02-13T01:25:12;30.70;;;22.03;;
8060;SDS011;4073;42.626;25.386;2023-02-13T01:27:37;31.97;;;22.67;;
8060;SDS011;4073;42.626;25.386;2023-02-13T01:30:04;32.27;;;22.20;;
8060;SDS011;4073;42.626;25.386;2023-02-13T01:32:34;31.50;;;23.42;;
8060;SDS011;4073;42.626;25.386;2023-02-13T01:34:59;31.30;;;23.40;;
8060;SDS011;4073;42.626;25.386;2023-02-13T01:37:25;40.87;;;26.47;;
8060;SDS011;4073;42.626;25.386;2023-02-13T01:39:50;40.87;;;28.53;;
8060;SDS011;4073;42.626;25.386;2023-02-13T01:42:24;34.93;;;25.73;;
8060;SDS011;4073;42.626;25.386;2023-02-13T01:44:54;40.47;;;28.53;;
8060;SDS011;4073;42.626;25.386;2023-02-13T01:50:12;79.67;;;47.97;;
8060;SDS011;4073;42.626;25.386;2023-02-13T01:52:52;72.80;;;45.45;;
8060;SDS011;4073;42.626;25.386;2023-02-13T01:55:25;79.97;;;48.40;;
8060;SDS011;4073;42.626;25.386;2023-02-13T01:58:00;51.42;;;34.63;;
8060;SDS011;4073;42.626;25.386;2023-02-13T02:00:31;49.17;;;30.17;;
8060;SDS011;4073;42.626;25.386;2023-02-13T02:02:59;51.65;;;34.90;;
8060;SDS011;4073;42.626;25.386;2023-02-13T02:05:32;42.85;;;29.60;;
8060;SDS011;4073;42.626;25.386;2023-02-13T02:07:59;51.00;;;33.70;;
8060;SDS011;4073;42.626;25.386;2023-02-13T02:10:28;63.00;;;39.63;;
8060;SDS011;4073;42.626;25.386;2023-02-13T02:15:28;58.88;;;36.70;;
8060;SDS011;4073;42.626;25.386;2023-02-13T02:17:54;54.17;;;36.57;;
8060;SDS011;4073;42.626;25.386;2023-02-13T02:44:56;40.28;;;26.60;;
8060;SDS011;4073;42.626;25.386;2023-02-13T02:56:05;43.22;;;28.05;;
8060;SDS011;4073;42.626;25.386;2023-02-13T02:58:56;29.85;;;20.65;;
8060;SDS011;4073;42.626;25.386;2023-02-13T03:01:46;57.75;;;36.78;;
8060;SDS011;4073;42.626;25.386;2023-02-13T03:04:39;62.47;;;40.03;;
8060;SDS011;4073;42.626;25.386;2023-02-13T03:07:24;40.25;;;25.90;;
8060;SDS011;4073;42.626;25.386;2023-02-13T03:09:52;30.13;;;21.10;;
8060;SDS011;4073;42.626;25.386;2023-02-13T03:12:57;32.20;;;21.67;;
8060;SDS011;4073;42.626;25.386;2023-02-13T03:15:46;30.08;;;21.77;;
8060;SDS011;4073;42.626;25.386;2023-02-13T03:18:34;25.85;;;19.33;;
8060;SDS011;4073;42.626;25.386;2023-02-13T03:29:59;31.60;;;21.08;;
8060;SDS011;4073;42.626;25.386;2023-02-13T03:38:21;27.13;;;20.00;;
8060;SDS011;4073;42.626;25.386;2023-02-13T03:40:57;30.77;;;19.50;;
8060;SDS011;4073;42.626;25.386;2023-02-13T03:44:29;31.98;;;20.42;;
8060;SDS011;4073;42.626;25.386;2023-02-13T03:46:33;29.45;;;21.05;;
8060;SDS011;4073;42.626;25.386;2023-02-13T03:49:03;36.58;;;24.15;;
8060;SDS011;4073;42.626;25.386;2023-02-13T03:52:01;30.67;;;21.27;;
8060;SDS011;4073;42.626;25.386;2023-02-13T03:57:23;31.42;;;20.83;;
8060;SDS011;4073;42.626;25.386;2023-02-13T04:00:10;33.78;;;23.00;;
8060;SDS011;4073;42.626;25.386;2023-02-13T04:02:39;37.38;;;25.00;;
8060;SDS011;4073;42.626;25.386;2023-02-13T04:05:13;34.50;;;21.38;;
8060;SDS011;4073;42.626;25.386;2023-02-13T04:07:42;33.78;;;20.63;;
8060;SDS011;4073;42.626;25.386;2023-02-13T04:10:09;32.20;;;21.03;;
8060;SDS011;4073;42.626;25.386;2023-02-13T04:18:27;29.58;;;20.20;;
8060;SDS011;4073;42.626;25.386;2023-02-13T04:20:56;31.15;;;20.55;;
8060;SDS011;4073;42.626;25.386;2023-02-13T04:23:25;33.13;;;22.15;;
8060;SDS011;4073;42.626;25.386;2023-02-13T04:25:51;34.60;;;22.20;;
8060;SDS011;4073;42.626;25.386;2023-02-13T04:28:19;30.42;;;21.77;;
8060;SDS011;4073;42.626;25.386;2023-02-13T04:30:44;35.50;;;22.70;;
8060;SDS011;4073;42.626;25.386;2023-02-13T04:33:10;33.43;;;22.03;;
8060;SDS011;4073;42.626;25.386;2023-02-13T04:35:35;34.57;;;23.23;;
8060;SDS011;4073;42.626;25.386;2023-02-13T04:38:01;28.67;;;19.37;;
8060;SDS011;4073;42.626;25.386;2023-02-13T04:40:27;26.03;;;19.97;;
8060;SDS011;4073;42.626;25.386;2023-02-13T04:42:52;29.87;;;22.57;;
8060;SDS011;4073;42.626;25.386;2023-02-13T04:45:18;31.77;;;23.17;;
8060;SDS011;4073;42.626;25.386;2023-02-13T04:47:48;33.80;;;24.03;;
8060;SDS011;4073;42.626;25.386;2023-02-13T04:50:15;32.63;;;23.70;;
8060;SDS011;4073;42.626;25.386;2023-02-13T04:52:41;32.07;;;20.53;;
8060;SDS011;4073;42.626;25.386;2023-02-13T04:55:06;32.43;;;21.03;;
8060;SDS011;4073;42.626;25.386;2023-02-13T04:57:32;32.43;;;21.23;;
8060;SDS011;4073;42.626;25.386;2023-02-13T04:59:57;29.00;;;18.67;;
8060;SDS011;4073;42.626;25.386;2023-02-13T05:02:23;32.20;;;19.70;;
8060;SDS011;4073;42.626;25.386;2023-02-13T05:04:48;27.43;;;19.57;;
8060;SDS011;4073;42.626;25.386;2023-02-13T05:07:14;30.90;;;20.30;;
8060;SDS011;4073;42.626;25.386;2023-02-13T05:09:39;30.60;;;20.40;;
8060;SDS011;4073;42.626;25.386;2023-02-13T05:12:05;32.30;;;22.57;;
8060;SDS011;4073;42.626;25.386;2023-02-13T05:14:30;29.43;;;21.10;;
8060;SDS011;4073;42.626;25.386;2023-02-13T05:16:55;34.30;;;21.33;;
8060;SDS011;4073;42.626;25.386;2023-02-13T05:19:21;30.47;;;20.67;;
8060;SDS011;4073;42.626;25.386;2023-02-13T05:21:46;37.70;;;24.37;;
8060;SDS011;4073;42.626;25.386;2023-02-13T05:24:30;38.13;;;24.73;;
8060;SDS011;4073;42.626;25.386;2023-02-13T05:26:55;35.93;;;24.67;;
8060;SDS011;4073;42.626;25.386;2023-02-13T05:29:21;43.83;;;29.73;;
8060;SDS011;4073;42.626;25.386;2023-02-13T05:31:56;42.20;;;28.73;;
8060;SDS011;4073;42.626;25.386;2023-02-13T05:34:24;38.38;;;24.27;;
8060;SDS011;4073;42.626;25.386;2023-02-13T05:36:50;38.22;;;23.83;;
8060;SDS011;4073;42.626;25.386;2023-02-13T05:39:16;38.70;;;24.45;;
8060;SDS011;4073;42.626;25.386;2023-02-13T05:41:42;39.23;;;26.60;;
8060;SDS011;4073;42.626;25.386;2023-02-13T05:44:09;35.08;;;25.13;;
8060;SDS011;4073;42.626;25.386;2023-02-13T05:46:36;48.40;;;28.63;;
8060;SDS011;4073;42.626;25.386;2023-02-13T05:49:03;60.28;;;35.20;;
8060;SDS011;4073;42.626;25.386;2023-02-13T05:51:29;53.83;;;34.27;;
8060;SDS011;4073;42.626;25.386;2023-02-13T05:53:54;51.40;;;35.63;;
8060;SDS011;4073;42.626;25.386;2023-02-13T05:56:20;40.83;;;29.43;;
8060;SDS011;4073;42.626;25.386;2023-02-13T05:58:45;45.13;;;30.10;;
8060;SDS011;4073;42.626;25.386;2023-02-13T06:01:11;44.57;;;28.57;;
8060;SDS011;4073;42.626;25.386;2023-02-13T06:03:36;31.93;;;23.00;;
8060;SDS011;4073;42.626;25.386;2023-02-13T06:06:04;30.23;;;22.67;;
8060;SDS011;4073;42.626;25.386;2023-02-13T06:08:30;30.07;;;20.90;;
8060;SDS011;4073;42.626;25.386;2023-02-13T06:10:55;30.20;;;22.33;;
8060;SDS011;4073;42.626;25.386;2023-02-13T06:13:21;27.90;;;19.63;;
8060;SDS011;4073;42.626;25.386;2023-02-13T06:15:47;25.27;;;18.83;;
8060;SDS011;4073;42.626;25.386;2023-02-13T06:18:12;27.13;;;19.63;;
8060;SDS011;4073;42.626;25.386;2023-02-13T06:20:38;34.67;;;20.70;;
8060;SDS011;4073;42.626;25.386;2023-02-13T06:23:03;33.30;;;21.73;;
8060;SDS011;4073;42.626;25.386;2023-02-13T06:25:29;41.87;;;23.83;;
8060;SDS011;4073;42.626;25.386;2023-02-13T06:27:54;30.90;;;22.87;;
8060;SDS011;4073;42.626;25.386;2023-02-13T06:30:20;38.50;;;23.60;;
8060;SDS011;4073;42.626;25.386;2023-02-13T06:32:46;29.87;;;21.90;;
8060;SDS011;4073;42.626;25.386;2023-02-13T06:35:13;29.13;;;21.30;;
8060;SDS011;4073;42.626;25.386;2023-02-13T06:37:40;30.63;;;22.93;;
8060;SDS011;4073;42.626;25.386;2023-02-13T06:40:08;35.43;;;24.87;;
8060;SDS011;4073;42.626;25.386;2023-02-13T06:42:34;38.23;;;26.97;;
8060;SDS011;4073;42.626;25.386;2023-02-13T06:44:59;30.70;;;25.40;;
8060;SDS011;4073;42.626;25.386;2023-02-13T06:47:25;32.77;;;23.60;;
8060;SDS011;4073;42.626;25.386;2023-02-13T06:49:50;34.13;;;26.57;;
8060;SDS011;4073;42.626;25.386;2023-02-13T06:52:16;34.70;;;25.83;;
8060;SDS011;4073;42.626;25.386;2023-02-13T06:54:41;35.70;;;25.60;;
8060;SDS011;4073;42.626;25.386;2023-02-13T06:57:07;30.30;;;23.90;;
8060;SDS011;4073;42.626;25.386;2023-02-13T06:59:32;28.90;;;23.40;;
8060;SDS011;4073;42.626;25.386;2023-02-13T07:01:58;28.93;;;22.30;;
8060;SDS011;4073;42.626;25.386;2023-02-13T07:04:23;30.73;;;20.70;;
8060;SDS011;4073;42.626;25.386;2023-02-13T07:06:49;23.27;;;19.13;;
8060;SDS011;4073;42.626;25.386;2023-02-13T07:09:14;22.37;;;18.53;;
8060;SDS011;4073;42.626;25.386;2023-02-13T07:11:40;26.30;;;20.17;;
8060;SDS011;4073;42.626;25.386;2023-02-13T07:14:06;25.97;;;21.60;;
8060;SDS011;4073;42.626;25.386;2023-02-13T07:16:32;25.43;;;19.03;;
8060;SDS011;4073;42.626;25.386;2023-02-13T07:18:57;26.23;;;19.37;;
8060;SDS011;4073;42.626;25.386;2023-02-13T07:21:23;28.53;;;21.57;;
8060;SDS011;4073;42.626;25.386;2023-02-13T07:23:48;23.70;;;19.57;;
8060;SDS011;4073;42.626;25.386;2023-02-13T07:26:15;24.90;;;19.57;;
8060;SDS011;4073;42.626;25.386;2023-02-13T07:28:40;21.50;;;18.10;;
8060;SDS011;4073;42.626;25.386;2023-02-13T07:31:06;22.13;;;17.60;;
8060;SDS011;4073;42.626;25.386;2023-02-13T07:33:32;24.30;;;17.90;;
8060;SDS011;4073;42.626;25.386;2023-02-13T07:35:58;20.53;;;16.50;;
8060;SDS011;4073;42.626;25.386;2023-02-13T07:38:23;21.77;;;17.43;;
8060;SDS011;4073;42.626;25.386;2023-02-13T07:40:49;22.17;;;18.37;;
8060;SDS011;4073;42.626;25.386;2023-02-13T07:43:14;25.13;;;19.97;;
8060;SDS011;4073;42.626;25.386;2023-02-13T07:45:40;23.50;;;18.77;;
8060;SDS011;4073;42.626;25.386;2023-02-13T07:48:05;22.07;;;18.87;;
8060;SDS011;4073;42.626;25.386;2023-02-13T07:50:31;24.50;;;18.20;;
8060;SDS011;4073;42.626;25.386;2023-02-13T07:52:58;23.83;;;20.00;;
8060;SDS011;4073;42.626;25.386;2023-02-13T07:55:25;27.37;;;21.73;;
8060;SDS011;4073;42.626;25.386;2023-02-13T07:57:51;27.73;;;20.80;;
8060;SDS011;4073;42.626;25.386;2023-02-13T08:00:17;25.10;;;20.37;;
8060;SDS011;4073;42.626;25.386;2023-02-13T08:02:44;27.40;;;20.60;;
8060;SDS011;4073;42.626;25.386;2023-02-13T08:05:09;23.70;;;19.90;;
8060;SDS011;4073;42.626;25.386;2023-02-13T08:07:35;23.23;;;19.23;;
8060;SDS011;4073;42.626;25.386;2023-02-13T08:10:01;23.07;;;18.70;;
8060;SDS011;4073;42.626;25.386;2023-02-13T08:12:46;23.87;;;19.60;;
8060;SDS011;4073;42.626;25.386;2023-02-13T08:15:13;24.07;;;19.93;;
8060;SDS011;4073;42.626;25.386;2023-02-13T08:17:39;23.20;;;20.80;;
8060;SDS011;4073;42.626;25.386;2023-02-13T08:20:05;23.13;;;20.13;;
8060;SDS011;4073;42.626;25.386;2023-02-13T08:22:35;24.00;;;21.13;;
8060;SDS011;4073;42.626;25.386;2023-02-13T08:25:02;26.97;;;23.70;;
8060;SDS011;4073;42.626;25.386;2023-02-13T08:27:28;29.03;;;24.60;;
8060;SDS011;4073;42.626;25.386;2023-02-13T08:29:54;26.60;;;23.00;;
8060;SDS011;4073;42.626;25.386;2023-02-13T08:32:21;23.73;;;20.03;;
8060;SDS011;4073;42.626;25.386;2023-02-13T08:34:47;25.43;;;20.87;;
8060;SDS011;4073;42.626;25.386;2023-02-13T08:37:12;26.37;;;20.00;;
8060;SDS011;4073;42.626;25.386;2023-02-13T08:39:38;24.17;;;18.43;;
8060;SDS011;4073;42.626;25.386;2023-02-13T08:42:03;21.33;;;18.40;;
8060;SDS011;4073;42.626;25.386;2023-02-13T08:44:29;24.60;;;19.30;;
8060;SDS011;4073;42.626;25.386;2023-02-13T08:46:55;19.30;;;16.90;;
8060;SDS011;4073;42.626;25.386;2023-02-13T08:49:20;18.97;;;16.97;;
8060;SDS011;4073;42.626;25.386;2023-02-13T08:51:47;19.33;;;16.53;;
8060;SDS011;4073;42.626;25.386;2023-02-13T08:54:13;19.10;;;16.07;;
8060;SDS011;4073;42.626;25.386;2023-02-13T08:56:38;18.93;;;17.03;;
8060;SDS011;4073;42.626;25.386;2023-02-13T08:59:04;20.97;;;18.10;;
8060;SDS011;4073;42.626;25.386;2023-02-13T09:01:30;17.37;;;15.57;;
8060;SDS011;4073;42.626;25.386;2023-02-13T09:03:55;19.90;;;15.07;;
8060;SDS011;4073;42.626;25.386;2023-02-13T09:06:20;17.33;;;15.23;;
8060;SDS011;4073;42.626;25.386;2023-02-13T09:08:46;17.70;;;14.67;;
8060;SDS011;4073;42.626;25.386;2023-02-13T09:11:12;16.77;;;14.83;;
8060;SDS011;4073;42.626;25.386;2023-02-13T09:13:37;18.03;;;14.70;;
8060;SDS011;4073;42.626;25.386;2023-02-13T09:16:04;16.00;;;13.97;;
8060;SDS011;4073;42.626;25.386;2023-02-13T09:18:32;17.83;;;14.57;;
8060;SDS011;4073;42.626;25.386;2023-02-13T09:20:59;17.23;;;14.40;;
8060;SDS011;4073;42.626;25.386;2023-02-13T09:23:25;17.37;;;14.00;;
8060;SDS011;4073;42.626;25.386;2023-02-13T09:25:51;15.60;;;13.27;;
8060;SDS011;4073;42.626;25.386;2023-02-13T09:28:16;15.97;;;13.70;;
8060;SDS011;4073;42.626;25.386;2023-02-13T09:30:42;17.30;;;15.47;;
8060;SDS011;4073;42.626;25.386;2023-02-13T09:33:10;17.70;;;14.40;;
8060;SDS011;4073;42.626;25.386;2023-02-13T09:35:36;16.63;;;13.50;;
8060;SDS011;4073;42.626;25.386;2023-02-13T09:38:05;16.47;;;14.23;;
8060;SDS011;4073;42.626;25.386;2023-02-13T09:40:33;18.30;;;13.37;;
8060;SDS011;4073;42.626;25.386;2023-02-13T09:46:14;15.30;;;12.23;;
8060;SDS011;4073;42.626;25.386;2023-02-13T09:48:46;14.67;;;13.00;;
8060;SDS011;4073;42.626;25.386;2023-02-13T09:51:16;17.17;;;13.63;;
8060;SDS011;4073;42.626;25.386;2023-02-13T09:53:46;14.90;;;12.73;;
8060;SDS011;4073;42.626;25.386;2023-02-13T09:56:22;12.63;;;11.33;;
8060;SDS011;4073;42.626;25.386;2023-02-13T09:59:02;14.07;;;12.13;;
8060;SDS011;4073;42.626;25.386;2023-02-13T10:01:40;18.13;;;13.30;;
8060;SDS011;4073;42.626;25.386;2023-02-13T10:10:16;14.57;;;11.77;;
8060;SDS011;4073;42.626;25.386;2023-02-13T10:18:02;13.97;;;11.30;;
8060;SDS011;4073;42.626;25.386;2023-02-13T10:25:57;14.30;;;10.73;;
8060;SDS011;4073;42.626;25.386;2023-02-13T10:28:29;15.63;;;13.10;;
8060;SDS011;4073;42.626;25.386;2023-02-13T10:31:07;15.57;;;12.73;;
8060;SDS011;4073;42.626;25.386;2023-02-13T10:36:21;43.57;;;29.33;;
8060;SDS011;4073;42.626;25.386;2023-02-13T10:38:57;16.33;;;13.93;;
8060;SDS011;4073;42.626;25.386;2023-02-13T10:44:20;18.77;;;14.43;;
8060;SDS011;4073;42.626;25.386;2023-02-13T10:53:04;18.17;;;12.70;;
8060;SDS011;4073;42.626;25.386;2023-02-13T10:55:58;19.27;;;13.87;;
8060;SDS011;4073;42.626;25.386;2023-02-13T10:59:13;15.20;;;12.87;;
8060;SDS011;4073;42.626;25.386;2023-02-13T11:01:50;20.70;;;15.67;;
8060;SDS011;4073;42.626;25.386;2023-02-13T11:04:20;16.73;;;12.93;;
8060;SDS011;4073;42.626;25.386;2023-02-13T11:06:56;17.27;;;14.40;;
8060;SDS011;4073;42.626;25.386;2023-02-13T11:09:24;16.60;;;13.40;;
8060;SDS011;4073;42.626;25.386;2023-02-13T11:11:50;16.73;;;13.67;;
8060;SDS011;4073;42.626;25.386;2023-02-13T11:14:17;17.07;;;14.33;;
8060;SDS011;4073;42.626;25.386;2023-02-13T11:19:21;16.10;;;13.00;;
8060;SDS011;4073;42.626;25.386;2023-02-13T11:21:55;16.33;;;13.40;;
8060;SDS011;4073;42.626;25.386;2023-02-13T11:24:35;15.20;;;13.60;;
8060;SDS011;4073;42.626;25.386;2023-02-13T11:27:04;19.03;;;14.53;;
8060;SDS011;4073;42.626;25.386;2023-02-13T11:29:50;14.03;;;12.53;;
8060;SDS011;4073;42.626;25.386;2023-02-13T11:32:25;16.73;;;13.20;;
8060;SDS011;4073;42.626;25.386;2023-02-13T11:34:52;21.70;;;14.23;;
8060;SDS011;4073;42.626;25.386;2023-02-13T11:37:21;15.67;;;13.20;;
8060;SDS011;4073;42.626;25.386;2023-02-13T11:39:50;19.27;;;13.97;;
8060;SDS011;4073;42.626;25.386;2023-02-13T11:42:28;17.60;;;14.00;;
8060;SDS011;4073;42.626;25.386;2023-02-13T11:45:06;17.13;;;13.87;;
8060;SDS011;4073;42.626;25.386;2023-02-13T11:47:44;20.03;;;15.63;;
8060;SDS011;4073;42.626;25.386;2023-02-13T11:50:24;17.17;;;13.87;;
8060;SDS011;4073;42.626;25.386;2023-02-13T11:52:51;15.53;;;13.07;;
8060;SDS011;4073;42.626;25.386;2023-02-13T11:57:58;17.73;;;13.53;;
8060;SDS011;4073;42.626;25.386;2023-02-13T12:00:36;13.30;;;11.90;;
8060;SDS011;4073;42.626;25.386;2023-02-13T12:05:56;15.53;;;12.17;;
8060;SDS011;4073;42.626;25.386;2023-02-13T12:08:45;17.10;;;10.83;;
8060;SDS011;4073;42.626;25.386;2023-02-13T12:14:03;12.03;;;10.13;;
8060;SDS011;4073;42.626;25.386;2023-02-13T12:16:33;16.23;;;9.80;;
8060;SDS011;4073;42.626;25.386;2023-02-13T12:19:05;12.60;;;11.30;;
8060;SDS011;4073;42.626;25.386;2023-02-13T12:22:20;14.20;;;10.20;;
8060;SDS011;4073;42.626;25.386;2023-02-13T12:24:32;13.47;;;10.20;;
8060;SDS011;4073;42.626;25.386;2023-02-13T12:27:34;12.53;;;10.67;;
8060;SDS011;4073;42.626;25.386;2023-02-13T12:30:35;12.07;;;9.90;;
8060;SDS011;4073;42.626;25.386;2023-02-13T12:41:06;10.50;;;9.40;;
8060;SDS011;4073;42.626;25.386;2023-02-13T13:11:25;9.93;;;7.73;;
8060;SDS011;4073;42.626;25.386;2023-02-13T13:16:49;10.57;;;7.73;;
8060;SDS011;4073;42.626;25.386;2023-02-13T13:19:30;9.57;;;7.43;;
8060;SDS011;4073;42.626;25.386;2023-02-13T13:27:27;16.50;;;9.10;;
8060;SDS011;4073;42.626;25.386;2023-02-13T13:29:57;11.67;;;9.10;;
8060;SDS011;4073;42.626;25.386;2023-02-13T13:32:26;10.67;;;8.63;;
8060;SDS011;4073;42.626;25.386;2023-02-13T13:34:54;13.37;;;8.17;;
8060;SDS011;4073;42.626;25.386;2023-02-13T13:40:17;11.10;;;8.27;;
8060;SDS011;4073;42.626;25.386;2023-02-13T13:51:08;7.77;;;6.90;;
8060;SDS011;4073;42.626;25.386;2023-02-13T13:57:00;9.77;;;7.87;;
8060;SDS011;4073;42.626;25.386;2023-02-13T13:59:18;9.40;;;7.93;;
8060;SDS011;4073;42.626;25.386;2023-02-13T14:07:25;11.00;;;8.07;;
8060;SDS011;4073;42.626;25.386;2023-02-13T14:09:59;11.20;;;9.40;;
8060;SDS011;4073;42.626;25.386;2023-02-13T14:14:50;11.53;;;8.83;;
8060;SDS011;4073;42.626;25.386;2023-02-13T14:17:46;13.43;;;9.80;;
8060;SDS011;4073;42.626;25.386;2023-02-13T14:22:55;10.30;;;8.77;;
8060;SDS011;4073;42.626;25.386;2023-02-13T14:25:30;11.00;;;8.93;;
8060;SDS011;4073;42.626;25.386;2023-02-13T14:28:00;12.53;;;9.57;;
8060;SDS011;4073;42.626;25.386;2023-02-13T14:30:29;11.80;;;9.93;;
8060;SDS011;4073;42.626;25.386;2023-02-13T14:32:55;10.47;;;9.27;;
8060;SDS011;4073;42.626;25.386;2023-02-13T14:37:52;11.03;;;9.03;;
8060;SDS011;4073;42.626;25.386;2023-02-13T14:40:50;12.97;;;9.53;;
8060;SDS011;4073;42.626;25.386;2023-02-13T14:46:02;12.93;;;10.43;;
8060;SDS011;4073;42.626;25.386;2023-02-13T14:48:34;24.37;;;16.67;;
8060;SDS011;4073;42.626;25.386;2023-02-13T14:51:06;15.93;;;10.93;;
8060;SDS011;4073;42.626;25.386;2023-02-13T14:53:46;13.47;;;11.30;;
8060;SDS011;4073;42.626;25.386;2023-02-13T14:56:17;18.03;;;13.07;;
8060;SDS011;4073;42.626;25.386;2023-02-13T14:58:53;15.47;;;11.37;;
8060;SDS011;4073;42.626;25.386;2023-02-13T15:01:27;14.53;;;11.30;;
8060;SDS011;4073;42.626;25.386;2023-02-13T15:03:56;17.50;;;13.17;;
8060;SDS011;4073;42.626;25.386;2023-02-13T15:06:31;14.80;;;11.23;;
8060;SDS011;4073;42.626;25.386;2023-02-13T15:09:01;18.43;;;11.30;;
8060;SDS011;4073;42.626;25.386;2023-02-13T15:16:51;15.40;;;11.07;;
8060;SDS011;4073;42.626;25.386;2023-02-13T15:19:30;14.73;;;11.30;;
8060;SDS011;4073;42.626;25.386;2023-02-13T15:21:59;13.30;;;10.87;;
8060;SDS011;4073;42.626;25.386;2023-02-13T15:24:26;14.73;;;11.00;;
8060;SDS011;4073;42.626;25.386;2023-02-13T15:26:58;14.10;;;11.13;;
8060;SDS011;4073;42.626;25.386;2023-02-13T15:29:25;12.83;;;10.83;;
8060;SDS011;4073;42.626;25.386;2023-02-13T15:31:51;16.23;;;12.20;;
8060;SDS011;4073;42.626;25.386;2023-02-13T15:34:27;16.53;;;12.77;;
8060;SDS011;4073;42.626;25.386;2023-02-13T15:36:56;20.77;;;14.83;;
8060;SDS011;4073;42.626;25.386;2023-02-13T15:39:22;18.33;;;13.27;;
8060;SDS011;4073;42.626;25.386;2023-02-13T15:41:52;21.90;;;16.50;;
8060;SDS011;4073;42.626;25.386;2023-02-13T15:44:32;28.50;;;18.67;;
8060;SDS011;4073;42.626;25.386;2023-02-13T15:47:17;25.30;;;17.70;;
8060;SDS011;4073;42.626;25.386;2023-02-13T15:49:49;24.10;;;18.97;;
8060;SDS011;4073;42.626;25.386;2023-02-13T15:54:55;35.73;;;24.50;;
8060;SDS011;4073;42.626;25.386;2023-02-13T15:57:21;25.77;;;21.93;;
8060;SDS011;4073;42.626;25.386;2023-02-13T15:59:48;34.00;;;24.43;;
8060;SDS011;4073;42.626;25.386;2023-02-13T16:02:21;35.93;;;26.40;;
8060;SDS011;4073;42.626;25.386;2023-02-13T16:04:51;37.10;;;28.77;;
8060;SDS011;4073;42.626;25.386;2023-02-13T16:07:18;42.90;;;30.63;;
8060;SDS011;4073;42.626;25.386;2023-02-13T16:09:44;41.83;;;29.47;;
8060;SDS011;4073;42.626;25.386;2023-02-13T16:14:51;45.17;;;28.00;;
8060;SDS011;4073;42.626;25.386;2023-02-13T16:17:24;48.13;;;34.93;;
8060;SDS011;4073;42.626;25.386;2023-02-13T16:27:29;52.77;;;35.57;;
8060;SDS011;4073;42.626;25.386;2023-02-13T16:29:58;41.30;;;27.97;;
8060;SDS011;4073;42.626;25.386;2023-02-13T16:32:35;34.50;;;27.20;;
8060;SDS011;4073;42.626;25.386;2023-02-13T16:37:53;46.87;;;34.43;;
8060;SDS011;4073;42.626;25.386;2023-02-13T16:43:31;38.23;;;29.40;;
8060;SDS011;4073;42.626;25.386;2023-02-13T16:48:42;35.40;;;24.97;;
8060;SDS011;4073;42.626;25.386;2023-02-13T16:56:53;47.53;;;28.87;;
8060;SDS011;4073;42.626;25.386;2023-02-13T16:59:23;45.27;;;29.57;;
8060;SDS011;4073;42.626;25.386;2023-02-13T17:04:40;46.10;;;34.20;;
8060;SDS011;4073;42.626;25.386;2023-02-13T17:07:11;38.53;;;28.03;;
8060;SDS011;4073;42.626;25.386;2023-02-13T17:09:38;36.33;;;27.03;;
8060;SDS011;4073;42.626;25.386;2023-02-13T17:12:03;42.67;;;33.37;;
8060;SDS011;4073;42.626;25.386;2023-02-13T17:14:35;51.60;;;33.07;;
8060;SDS011;4073;42.626;25.386;2023-02-13T17:17:00;70.70;;;47.80;;
8060;SDS011;4073;42.626;25.386;2023-02-13T17:19:26;90.67;;;58.00;;
8060;SDS011;4073;42.626;25.386;2023-02-13T17:21:51;61.00;;;40.93;;
8060;SDS011;4073;42.626;25.386;2023-02-13T17:24:19;84.97;;;54.97;;
8060;SDS011;4073;42.626;25.386;2023-02-13T17:26:45;61.13;;;39.03;;
8060;SDS011;4073;42.626;25.386;2023-02-13T17:29:10;68.00;;;48.50;;
8060;SDS011;4073;42.626;25.386;2023-02-13T17:31:35;69.13;;;45.30;;
8060;SDS011;4073;42.626;25.386;2023-02-13T17:34:01;92.57;;;53.93;;
8060;SDS011;4073;42.626;25.386;2023-02-13T17:36:26;71.63;;;45.30;;
8060;SDS011;4073;42.626;25.386;2023-02-13T17:38:52;69.10;;;44.17;;
8060;SDS011;4073;42.626;25.386;2023-02-13T17:41:17;115.53;;;77.07;;
8060;SDS011;4073;42.626;25.386;2023-02-13T17:43:43;89.93;;;62.97;;
8060;SDS011;4073;42.626;25.386;2023-02-13T17:46:08;107.93;;;70.83;;
8060;SDS011;4073;42.626;25.386;2023-02-13T17:48:34;102.93;;;68.40;;
8060;SDS011;4073;42.626;25.386;2023-02-13T17:50:59;46.60;;;32.37;;
8060;SDS011;4073;42.626;25.386;2023-02-13T17:53:26;59.50;;;38.67;;
8060;SDS011;4073;42.626;25.386;2023-02-13T17:55:56;77.27;;;50.00;;
8060;SDS011;4073;42.626;25.386;2023-02-13T17:58:22;59.10;;;40.13;;
8060;SDS011;4073;42.626;25.386;2023-02-13T18:00:48;39.43;;;26.93;;
8060;SDS011;4073;42.626;25.386;2023-02-13T18:03:13;45.40;;;36.67;;
8060;SDS011;4073;42.626;25.386;2023-02-13T18:05:39;49.57;;;35.93;;
8060;SDS011;4073;42.626;25.386;2023-02-13T18:08:05;55.37;;;35.47;;
8060;SDS011;4073;42.626;25.386;2023-02-13T18:10:32;66.50;;;46.00;;
8060;SDS011;4073;42.626;25.386;2023-02-13T18:12:59;79.60;;;52.40;;
8060;SDS011;4073;42.626;25.386;2023-02-13T18:15:38;63.20;;;45.97;;
8060;SDS011;4073;42.626;25.386;2023-02-13T18:18:06;64.23;;;44.67;;
8060;SDS011;4073;42.626;25.386;2023-02-13T18:20:32;64.60;;;48.80;;
8060;SDS011;4073;42.626;25.386;2023-02-13T18:22:58;63.73;;;47.87;;
8060;SDS011;4073;42.626;25.386;2023-02-13T18:25:24;59.57;;;45.60;;